This is the latest recevied weather packets stored in our database for station/object N8QF. If no packets are shown the sender has not sent any weather packets the latest 10 day(s).
| Time | Temp. | Humidity | Pressure | Rain* | Wind** | Luminosity | Snow |
|---|---|---|---|---|---|---|---|
| 1778013418 | 16.11° C | 90% | 1007.3 hPa | 7.37 mm | - | - | - |
| 1778013118 | 16.11° C | 91% | 1007.3 hPa | 7.37 mm | - | - | - |
| 1778012818 | 16.11° C | 90% | 1007.2 hPa | 7.11 mm | - | - | - |
| 1778012517 | 16.11° C | 90% | 1007.3 hPa | 7.11 mm | - | - | - |
| 1778012217 | 16.11° C | 90% | 1007.3 hPa | 7.11 mm | - | - | - |
| 1778011917 | 16.11° C | 90% | 1007.3 hPa | 6.86 mm | - | - | - |
| 1778011617 | 16.67° C | 90% | 1007.3 hPa | 6.86 mm | - | - | - |
| 1778011318 | 16.11° C | 89% | 1007.5 hPa | 6.6 mm | - | - | - |
| 1778011016 | 16.11° C | 89% | 1007.6 hPa | 6.35 mm | - | - | - |
| 1778010716 | 16.11° C | 89% | 1007.8 hPa | 6.1 mm | - | - | - |
| 1778010416 | 16.11° C | 88% | 1007.9 hPa | 5.84 mm | - | - | - |
| 1778010115 | 16.67° C | 87% | 1007.9 hPa | 5.33 mm | - | - | - |
| 1778009813 | 16.67° C | 84% | 1007.8 hPa | 4.57 mm | - | - | - |
| 1778009513 | 17.22° C | 78% | 1007.6 hPa | 3.3 mm | - | - | - |
| 1778009213 | 18.89° C | 70% | 1007.3 hPa | 2.03 mm | - | - | - |
| 1778008912 | 19.44° C | 65% | 1007.1 hPa | 1.78 mm | - | - | - |
| 1778008612 | 19.44° C | 64% | 1007.2 hPa | 1.78 mm | - | - | - |
| 1778008311 | 19.44° C | 64% | 1007.2 hPa | 1.78 mm | - | - | - |
| 1778008011 | 19.44° C | 63% | 1007.3 hPa | 1.78 mm | - | - | - |
| 1778007711 | 19.44° C | 63% | 1007.3 hPa | 1.78 mm | - | - | - |
| 1778007411 | 19.44° C | 66% | 1007.4 hPa | 1.78 mm | - | - | - |
| 1778007110 | 19.44° C | 65% | 1007.4 hPa | 1.78 mm | - | - | - |
| 1778006810 | 19.44° C | 64% | 1007.5 hPa | 1.78 mm | - | - | - |
| 1778006510 | 19.44° C | 65% | 1007.5 hPa | 1.78 mm | - | - | - |
| 1778006210 | 19.44° C | 64% | 1007.6 hPa | 1.78 mm | - | - | - |
* Rain since midnight (hover to see other rain measurements)
** Current wind speed in m/s (hover to see current wind gust speed)